Time;durP1;ratioP1;P1;durP2;ratioP2;P2;SDS_P1;SDS_P2;PMS_P1;PMS_P2;Temp;Humidity;BMP_temperature;BMP_pressure;BME280_temperature;BME280_humidity;BME280_pressure;Samples;Min_cycle;Max_cycle;Signal;HPM_P1;HPM_P2
2022/01/09 00:01:03;;;;;;;1.43;1.33;;;8.30;63.40;;;;;;5107860;27;20222;-52
2022/01/09 00:03:29;;;;;;;1.20;1.10;;;8.20;63.30;;;;;;5107842;28;20559;-50
2022/01/09 00:05:55;;;;;;;1.23;0.97;;;8.20;64.20;;;;;;5108873;28;20209;-50
2022/01/09 00:08:20;;;;;;;1.63;1.07;;;8.50;64.30;;;;;;5111058;28;20206;-53
2022/01/09 00:10:47;;;;;;;2.87;0.90;;;8.70;63.70;;;;;;5107578;28;20191;-51
2022/01/09 00:13:13;;;;;;;3.47;1.20;;;8.70;63.90;;;;;;5105825;28;20268;-50
2022/01/09 00:15:39;;;;;;;1.03;0.93;;;8.50;64.20;;;;;;5110153;28;20458;-52
2022/01/09 00:18:05;;;;;;;0.93;0.83;;;8.60;65.00;;;;;;5104683;28;20928;-52
2022/01/09 00:20:31;;;;;;;1.10;0.80;;;8.40;64.60;;;;;;5109927;28;20479;-51
2022/01/09 00:22:57;;;;;;;0.90;0.90;;;8.40;65.80;;;;;;5102614;28;20206;-50
2022/01/09 00:25:24;;;;;;;2.90;0.87;;;8.60;65.20;;;;;;5104663;28;20691;-50
2022/01/09 00:27:51;;;;;;;0.70;0.70;;;8.70;64.50;;;;;;5103649;28;20869;-52
2022/01/09 00:30:18;;;;;;;1.10;0.80;;;8.80;64.60;;;;;;5106039;28;20461;-52
2022/01/09 00:32:45;;;;;;;0.80;0.60;;;9.00;64.40;;;;;;5101805;28;20551;-54
2022/01/09 00:35:12;;;;;;;3.30;0.90;;;9.10;63.80;;;;;;5111160;28;20531;-53
2022/01/09 00:37:38;;;;;;;0.73;0.70;;;9.20;63.50;;;;;;5106244;28;20912;-53
2022/01/09 00:40:06;;;;;;;0.90;0.77;;;9.20;63.40;;;;;;5109287;28;20794;-52
2022/01/09 00:42:31;;;;;;;1.27;0.77;;;9.30;63.20;;;;;;5104388;27;20440;-53
2022/01/09 00:44:57;;;;;;;0.70;0.60;;;9.40;63.20;;;;;;5105186;28;20526;-53
2022/01/09 00:47:23;;;;;;;0.93;0.90;;;9.50;63.30;;;;;;5109015;28;20196;-50
2022/01/09 00:49:48;;;;;;;0.70;0.70;;;9.40;63.10;;;;;;5105041;28;20642;-50
2022/01/09 00:52:14;;;;;;;1.10;0.70;;;9.40;63.30;;;;;;5104219;28;20194;-50
2022/01/09 00:54:40;;;;;;;0.70;0.60;;;9.50;63.50;;;;;;5110380;28;20190;-51
2022/01/09 00:57:05;;;;;;;0.60;0.60;;;9.50;63.60;;;;;;5104108;28;20252;-52
2022/01/09 00:59:31;;;;;;;0.90;0.70;;;9.30;64.10;;;;;;5104587;28;20201;-50
2022/01/09 01:01:57;;;;;;;0.60;0.60;;;9.40;64.40;;;;;;5109153;28;20225;-51
2022/01/09 01:04:22;;;;;;;0.93;0.83;;;9.20;64.20;;;;;;5108488;28;20214;-53
2022/01/09 01:06:49;;;;;;;0.60;0.60;;;9.40;64.70;;;;;;5103897;28;20191;-52
2022/01/09 01:09:16;;;;;;;0.60;0.60;;;9.30;64.40;;;;;;5107724;28;20194;-49
2022/01/09 01:11:41;;;;;;;0.60;0.50;;;9.40;64.40;;;;;;5106898;28;20940;-49
2022/01/09 01:14:07;;;;;;;0.70;0.60;;;9.10;64.90;;;;;;5102371;28;20437;-49
2022/01/09 01:16:32;;;;;;;0.70;0.70;;;9.00;65.10;;;;;;5106783;28;20304;-52
2022/01/09 01:19:00;;;;;;;1.80;0.70;;;8.90;66.00;;;;;;5104632;28;20202;-51
2022/01/09 01:21:25;;;;;;;0.50;0.50;;;9.10;65.90;;;;;;5098202;28;20305;-49
2022/01/09 01:23:52;;;;;;;0.50;0.50;;;9.10;65.10;;;;;;5102531;28;20847;-50
2022/01/09 01:26:17;;;;;;;4.67;0.70;;;9.10;65.20;;;;;;5105664;28;20248;-53
2022/01/09 01:28:43;;;;;;;1.90;0.60;;;9.20;65.10;;;;;;5101728;28;20471;-50
2022/01/09 01:31:10;;;;;;;0.60;0.60;;;9.10;65.00;;;;;;5108894;28;20218;-49
2022/01/09 01:33:36;;;;;;;0.60;0.50;;;9.10;65.60;;;;;;5096343;28;20241;-52
2022/01/09 01:36:02;;;;;;;0.60;0.50;;;9.10;65.50;;;;;;5102586;28;20456;-51
2022/01/09 01:38:27;;;;;;;1.00;1.00;;;9.30;65.20;;;;;;5106030;28;20197;-49
2022/01/09 01:40:53;;;;;;;0.97;0.50;;;9.40;65.00;;;;;;5107279;28;20548;-50
2022/01/09 01:43:19;;;;;;;0.80;0.80;;;9.50;64.60;;;;;;5105652;28;20324;-54
2022/01/09 01:45:44;;;;;;;0.50;0.50;;;9.60;63.90;;;;;;5108512;28;20555;-49
2022/01/09 01:48:11;;;;;;;0.63;0.60;;;9.50;63.80;;;;;;5109204;28;20702;-53
2022/01/09 01:50:38;;;;;;;1.00;0.60;;;9.50;64.10;;;;;;5100700;28;20317;-51
2022/01/09 01:53:17;;;;;;;0.80;0.60;;;9.50;63.90;;;;;;5103073;28;20433;-50
2022/01/09 01:55:44;;;;;;;0.63;0.53;;;9.40;64.00;;;;;;5104285;28;20443;-51
2022/01/09 01:58:11;;;;;;;0.67;0.67;;;9.40;63.90;;;;;;5107474;28;20939;-49
2022/01/09 02:00:42;;;;;;;0.77;0.77;;;9.20;64.00;;;;;;5106505;28;20478;-51
2022/01/09 02:03:09;;;;;;;0.60;0.60;;;9.30;64.10;;;;;;5109709;28;20562;-50
2022/01/09 02:05:35;;;;;;;0.67;0.50;;;9.30;64.10;;;;;;5109993;28;20433;-49
2022/01/09 02:08:02;;;;;;;0.60;0.60;;;9.40;64.00;;;;;;5111900;28;20451;-49
2022/01/09 02:10:28;;;;;;;0.67;0.67;;;9.40;63.50;;;;;;5110425;28;20905;-49
2022/01/09 02:12:56;;;;;;;0.60;0.60;;;9.40;63.60;;;;;;5109284;28;20565;-52
2022/01/09 02:15:42;;;;;;;0.60;0.60;;;9.50;63.40;;;;;;5112372;28;20214;-52
2022/01/09 02:18:10;;;;;;;0.60;0.50;;;9.60;63.10;;;;;;5110213;28;20451;-49
2022/01/09 02:20:37;;;;;;;0.50;0.50;;;9.60;62.70;;;;;;5109808;28;21280;-50
2022/01/09 02:23:05;;;;;;;0.60;0.60;;;9.60;62.40;;;;;;5111742;28;20456;-50
2022/01/09 02:25:31;;;;;;;0.70;0.63;;;9.60;62.10;;;;;;5111455;28;20983;-50
2022/01/09 02:27:57;;;;;;;0.50;0.50;;;9.60;62.60;;;;;;5110452;28;20515;-51
2022/01/09 02:30:23;;;;;;;0.60;0.50;;;9.50;63.00;;;;;;5110339;28;20219;-50
2022/01/09 02:32:48;;;;;;;0.73;0.70;;;9.30;63.60;;;;;;5108557;28;20639;-52
2022/01/09 02:35:14;;;;;;;0.60;0.60;;;9.20;64.00;;;;;;5109498;28;20194;-50
2022/01/09 02:37:40;;;;;;;0.60;0.60;;;9.20;64.10;;;;;;5107290;28;20659;-49
2022/01/09 02:40:07;;;;;;;0.80;0.63;;;9.10;64.30;;;;;;5109359;28;20962;-49
2022/01/09 02:42:33;;;;;;;0.50;0.50;;;9.00;64.40;;;;;;5111394;28;20226;-50
2022/01/09 02:44:59;;;;;;;0.60;0.50;;;9.00;65.30;;;;;;5097717;28;20428;-49
2022/01/09 02:47:29;;;;;;;0.50;0.50;;;9.10;65.20;;;;;;5111515;28;20943;-53
2022/01/09 02:49:56;;;;;;;0.50;0.50;;;9.10;64.80;;;;;;5110864;28;20459;-51
2022/01/09 02:55:12;;;;;;;0.50;0.43;;;9.00;65.40;;;;;;5080745;28;20485;-52
2022/01/09 02:57:39;;;;;;;0.50;0.50;;;9.10;65.40;;;;;;5112800;28;20475;-50
2022/01/09 03:00:10;;;;;;;0.50;0.50;;;9.10;65.10;;;;;;5109009;28;20794;-52
2022/01/09 03:02:36;;;;;;;0.50;0.50;;;9.00;65.00;;;;;;5109187;28;20456;-53
2022/01/09 03:05:02;;;;;;;0.50;0.40;;;9.10;65.30;;;;;;5111576;28;20780;-51
2022/01/09 03:07:28;;;;;;;0.50;0.40;;;9.30;64.70;;;;;;5105450;28;20281;-53
2022/01/09 03:09:53;;;;;;;0.40;0.40;;;9.30;64.40;;;;;;5111530;28;20535;-50
2022/01/09 03:12:19;;;;;;;0.50;0.40;;;9.40;64.20;;;;;;5105203;28;20558;-49
2022/01/09 03:14:46;;;;;;;0.60;0.53;;;9.30;63.90;;;;;;5111548;28;20642;-51
2022/01/09 03:17:11;;;;;;;0.40;0.40;;;9.30;64.40;;;;;;5102535;28;20186;-50
2022/01/09 03:19:37;;;;;;;0.50;0.40;;;9.20;64.30;;;;;;5109948;28;20486;-51
2022/01/09 03:22:03;;;;;;;0.50;0.40;;;9.10;64.70;;;;;;5107480;28;20968;-50
2022/01/09 03:24:28;;;;;;;0.50;0.40;;;9.10;65.00;;;;;;5103881;28;20202;-51
2022/01/09 03:26:54;;;;;;;0.40;0.40;;;8.90;64.90;;;;;;5104494;28;20190;-51
2022/01/09 03:29:20;;;;;;;0.50;0.40;;;9.00;65.40;;;;;;5108385;28;20244;-49
2022/01/09 03:31:45;;;;;;;1.83;0.53;;;9.00;65.30;;;;;;5109465;28;20265;-51
2022/01/09 03:34:11;;;;;;;0.50;0.40;;;9.00;65.00;;;;;;5110797;28;20190;-52
2022/01/09 03:36:36;;;;;;;0.50;0.47;;;9.00;65.40;;;;;;5108475;28;20892;-50
2022/01/09 03:39:02;;;;;;;0.50;0.40;;;8.90;65.20;;;;;;5113127;28;20649;-49
2022/01/09 03:41:28;;;;;;;1.27;1.17;;;8.70;65.60;;;;;;5104116;28;20214;-51
2022/01/09 03:43:53;;;;;;;0.50;0.40;;;8.70;65.90;;;;;;5106681;28;20218;-51
2022/01/09 03:46:19;;;;;;;0.50;0.50;;;8.60;66.00;;;;;;5106616;28;20209;-49
2022/01/09 03:48:44;;;;;;;0.50;0.47;;;8.60;67.10;;;;;;5110539;28;20198;-49
2022/01/09 03:51:11;;;;;;;0.40;0.40;;;8.50;67.10;;;;;;5111035;28;20198;-52
2022/01/09 03:53:38;;;;;;;0.90;0.50;;;8.70;68.10;;;;;;5110500;28;20255;-51
2022/01/09 03:56:03;;;;;;;1.60;0.60;;;8.60;68.60;;;;;;5106823;28;20424;-50
2022/01/09 03:58:29;;;;;;;0.60;0.60;;;8.50;68.30;;;;;;5109797;28;20427;-50
2022/01/09 04:00:55;;;;;;;0.47;0.40;;;8.50;68.10;;;;;;5103625;28;20491;-50
2022/01/09 04:03:20;;;;;;;0.63;0.63;;;8.60;68.90;;;;;;5106978;28;20195;-50
2022/01/09 04:05:46;;;;;;;0.60;0.50;;;8.70;68.60;;;;;;5109602;28;20193;-51
2022/01/09 04:08:12;;;;;;;0.70;0.50;;;8.50;67.60;;;;;;5110087;28;20183;-50
2022/01/09 04:10:41;;;;;;;0.97;0.40;;;8.60;68.00;;;;;;5109971;28;20682;-52
2022/01/09 04:13:08;;;;;;;0.60;0.50;;;8.50;67.90;;;;;;5106995;28;20190;-51
2022/01/09 04:15:33;;;;;;;0.57;0.43;;;8.60;67.60;;;;;;5110858;28;20802;-52
2022/01/09 04:18:00;;;;;;;0.90;0.50;;;8.50;67.60;;;;;;5110745;28;20421;-53
2022/01/09 04:20:30;;;;;;;0.60;0.50;;;8.60;67.90;;;;;;5098678;27;20197;-51
2022/01/09 04:22:57;;;;;;;0.50;0.40;;;8.70;67.90;;;;;;5101260;28;20438;-50
2022/01/09 04:25:22;;;;;;;0.57;0.50;;;8.60;68.40;;;;;;5092442;28;20498;-52
2022/01/09 04:27:50;;;;;;;1.10;0.50;;;8.80;68.50;;;;;;5106105;28;20460;-50
2022/01/09 04:30:16;;;;;;;0.93;0.50;;;8.50;68.30;;;;;;5109198;28;20226;-50
2022/01/09 04:32:42;;;;;;;0.60;0.50;;;8.50;69.30;;;;;;5106758;28;20502;-52
2022/01/09 04:35:09;;;;;;;0.87;0.40;;;8.50;69.30;;;;;;5110076;28;20461;-51
2022/01/09 04:37:36;;;;;;;0.60;0.60;;;8.50;71.10;;;;;;5109050;28;20449;-52
2022/01/09 04:40:03;;;;;;;1.73;0.63;;;8.90;70.60;;;;;;5108314;28;20428;-53
2022/01/09 04:42:40;;;;;;;0.50;0.50;;;8.80;70.00;;;;;;5109148;28;20492;-52
2022/01/09 04:45:07;;;;;;;0.87;0.67;;;9.00;70.10;;;;;;5102454;28;20441;-49
2022/01/09 04:47:33;;;;;;;0.60;0.50;;;8.90;69.50;;;;;;5106544;28;20436;-51
2022/01/09 04:49:59;;;;;;;0.40;0.40;;;8.60;69.10;;;;;;5104537;28;20539;-49
2022/01/09 04:52:31;;;;;;;0.47;0.43;;;8.30;71.00;;;;;;5108270;28;20433;-50
2022/01/09 04:54:57;;;;;;;0.80;0.50;;;8.40;71.20;;;;;;5104803;28;20209;-49
2022/01/09 04:57:22;;;;;;;1.97;0.60;;;8.20;70.60;;;;;;5109212;28;20428;-52
2022/01/09 04:59:48;;;;;;;0.50;0.50;;;7.90;71.30;;;;;;5110210;28;20244;-51
2022/01/09 05:02:13;;;;;;;0.50;0.50;;;7.70;72.80;;;;;;5109884;28;20229;-53
2022/01/09 05:04:39;;;;;;;0.50;0.40;;;7.80;74.40;;;;;;5102608;28;20207;-50
2022/01/09 05:07:05;;;;;;;0.50;0.40;;;7.90;74.50;;;;;;5109670;28;20315;-53
2022/01/09 05:09:30;;;;;;;0.70;0.60;;;7.90;74.00;;;;;;5102359;28;20218;-49
2022/01/09 05:11:57;;;;;;;0.40;0.40;;;8.00;73.80;;;;;;5105372;28;20198;-51
2022/01/09 05:14:22;;;;;;;1.20;0.40;;;8.20;72.80;;;;;;5108636;28;20186;-53
2022/01/09 05:16:49;;;;;;;0.40;0.40;;;8.10;72.90;;;;;;5097422;28;20447;-51
2022/01/09 05:19:21;;;;;;;0.50;0.40;;;8.10;72.40;;;;;;5095843;28;20203;-50
2022/01/09 05:21:48;;;;;;;0.50;0.40;;;8.10;72.80;;;;;;5104209;28;20480;-52
2022/01/09 05:24:15;;;;;;;0.50;0.50;;;8.10;72.40;;;;;;5108104;28;20519;-52
2022/01/09 05:26:41;;;;;;;0.50;0.43;;;8.10;72.00;;;;;;5107799;28;20428;-50
2022/01/09 05:29:07;;;;;;;0.40;0.37;;;8.00;71.90;;;;;;5108034;28;20474;-53
2022/01/09 05:31:32;;;;;;;0.50;0.40;;;8.00;72.40;;;;;;5105870;28;20297;-53
2022/01/09 05:33:58;;;;;;;0.40;0.40;;;8.10;71.90;;;;;;5104349;28;21252;-51
2022/01/09 05:36:23;;;;;;;0.50;0.40;;;8.10;71.00;;;;;;5101332;28;20209;-53
2022/01/09 05:38:49;;;;;;;0.80;0.50;;;7.90;70.60;;;;;;5107581;28;20197;-52
2022/01/09 05:41:15;;;;;;;0.70;0.60;;;7.70;70.60;;;;;;5106603;28;20697;-53
2022/01/09 05:43:41;;;;;;;0.50;0.40;;;7.60;71.50;;;;;;5103982;28;20198;-54
2022/01/09 05:46:06;;;;;;;0.50;0.50;;;7.40;71.10;;;;;;5108404;28;20213;-51
2022/01/09 05:48:32;;;;;;;0.40;0.40;;;7.40;72.10;;;;;;5104955;28;20511;-52
2022/01/09 05:50:58;;;;;;;0.50;0.40;;;7.20;72.50;;;;;;5106997;28;20456;-53
2022/01/09 05:53:23;;;;;;;0.50;0.50;;;7.20;72.50;;;;;;5100928;28;20208;-53
2022/01/09 05:55:49;;;;;;;0.40;0.40;;;7.30;72.70;;;;;;5102394;28;20228;-53
2022/01/09 05:58:14;;;;;;;0.80;0.80;;;7.40;72.70;;;;;;5105989;28;20678;-53
2022/01/09 06:00:40;;;;;;;0.83;0.83;;;7.60;71.50;;;;;;5098210;28;20225;-53
2022/01/09 06:03:06;;;;;;;0.60;0.40;;;7.60;71.20;;;;;;5103398;28;20663;-53
2022/01/09 06:05:31;;;;;;;0.50;0.50;;;7.60;71.40;;;;;;5103795;28;20231;-52
2022/01/09 06:07:57;;;;;;;0.70;0.50;;;7.80;71.30;;;;;;5100166;28;20217;-51
2022/01/09 06:10:22;;;;;;;1.47;0.70;;;7.90;70.90;;;;;;5110107;28;20190;-51
2022/01/09 06:12:48;;;;;;;1.53;0.60;;;7.80;70.30;;;;;;5097844;28;20214;-50
2022/01/09 06:15:14;;;;;;;0.60;0.50;;;7.80;70.70;;;;;;5102349;28;20657;-52
2022/01/09 06:17:42;;;;;;;0.53;0.50;;;8.00;70.80;;;;;;5109070;28;20198;-52
2022/01/09 06:20:09;;;;;;;1.63;0.80;;;8.00;70.10;;;;;;5106407;28;20211;-50
2022/01/09 06:22:35;;;;;;;1.77;0.70;;;8.00;70.00;;;;;;5109454;28;20472;-53
2022/01/09 06:25:01;;;;;;;1.50;0.60;;;7.90;70.30;;;;;;5107232;28;20847;-52
2022/01/09 06:27:26;;;;;;;1.23;1.10;;;8.00;70.00;;;;;;5101218;28;20256;-53
2022/01/09 06:29:52;;;;;;;3.33;0.70;;;8.10;70.20;;;;;;5105324;28;20269;-50
2022/01/09 06:32:18;;;;;;;1.03;0.70;;;8.10;69.60;;;;;;5102612;28;20194;-50
2022/01/09 06:34:43;;;;;;;0.73;0.60;;;8.00;69.80;;;;;;5107123;28;20202;-50
2022/01/09 06:37:12;;;;;;;2.90;0.70;;;8.00;69.50;;;;;;5107455;28;20617;-52
2022/01/09 06:39:41;;;;;;;0.80;0.67;;;7.80;69.60;;;;;;5110482;28;20201;-51
2022/01/09 06:42:07;;;;;;;1.03;0.70;;;7.80;70.50;;;;;;5109124;28;20484;-52
2022/01/09 06:44:33;;;;;;;0.80;0.80;;;7.80;70.50;;;;;;5103594;28;20456;-52
2022/01/09 06:46:58;;;;;;;1.47;0.60;;;7.80;70.90;;;;;;5102803;28;20432;-49
2022/01/09 06:49:24;;;;;;;1.43;0.50;;;7.90;70.30;;;;;;5112644;28;20193;-50
2022/01/09 06:51:50;;;;;;;1.37;0.70;;;7.80;70.20;;;;;;5103965;28;20199;-53
2022/01/09 06:54:15;;;;;;;0.93;0.50;;;8.00;70.30;;;;;;5110861;28;20293;-50
2022/01/09 06:56:41;;;;;;;0.80;0.60;;;8.10;70.10;;;;;;5108916;28;20316;-50
2022/01/09 06:59:07;;;;;;;1.13;0.70;;;8.10;69.30;;;;;;5101983;28;20575;-49
2022/01/09 07:01:32;;;;;;;1.50;0.97;;;8.00;69.30;;;;;;5108920;28;20480;-49
2022/01/09 07:03:58;;;;;;;1.27;0.63;;;7.90;69.90;;;;;;5103169;28;20206;-51
2022/01/09 07:06:24;;;;;;;0.90;0.70;;;7.90;69.80;;;;;;5103110;28;20200;-53
2022/01/09 07:08:49;;;;;;;1.63;0.70;;;7.80;70.20;;;;;;5110071;28;20210;-52
2022/01/09 07:11:15;;;;;;;0.60;0.60;;;7.80;70.90;;;;;;5110131;28;20256;-52
2022/01/09 07:13:40;;;;;;;0.60;0.60;;;7.90;70.70;;;;;;5106400;28;20197;-52
2022/01/09 07:16:06;;;;;;;2.00;1.13;;;8.00;70.20;;;;;;5106057;28;20198;-52
2022/01/09 07:18:32;;;;;;;1.03;0.60;;;7.90;69.90;;;;;;5105583;28;20196;-53
2022/01/09 07:20:58;;;;;;;0.50;0.50;;;8.00;70.00;;;;;;5103909;28;20851;-53
2022/01/09 07:23:23;;;;;;;0.73;0.60;;;7.80;69.70;;;;;;5110963;28;20204;-49
2022/01/09 07:25:49;;;;;;;1.47;0.77;;;7.60;70.40;;;;;;5105564;28;20211;-52
2022/01/09 07:28:15;;;;;;;0.60;0.50;;;7.70;70.80;;;;;;5108281;28;20221;-52
2022/01/09 07:30:40;;;;;;;1.37;0.70;;;7.90;69.70;;;;;;5102280;28;20195;-54
2022/01/09 07:33:06;;;;;;;1.43;0.57;;;7.80;69.50;;;;;;5103486;28;20225;-50
2022/01/09 07:35:32;;;;;;;0.60;0.50;;;7.70;69.80;;;;;;5099024;28;20198;-49
2022/01/09 07:37:58;;;;;;;1.10;0.73;;;7.80;69.70;;;;;;5109550;28;20613;-52
2022/01/09 07:40:23;;;;;;;1.23;0.57;;;7.60;69.70;;;;;;5104375;28;20430;-53
2022/01/09 07:42:50;;;;;;;1.47;0.60;;;7.70;70.30;;;;;;5099415;28;20612;-49
2022/01/09 07:45:17;;;;;;;2.47;0.83;;;7.60;70.20;;;;;;5105930;28;20183;-52
2022/01/09 07:47:42;;;;;;;0.90;0.83;;;7.60;70.20;;;;;;5105187;28;20481;-49
2022/01/09 07:50:14;;;;;;;3.70;1.57;;;7.70;69.70;;;;;;5102738;28;20441;-51
2022/01/09 07:52:40;;;;;;;1.93;0.90;;;7.90;69.50;;;;;;5112162;28;20191;-53
2022/01/09 07:55:07;;;;;;;1.83;0.70;;;8.10;69.20;;;;;;5105087;28;20479;-48
2022/01/09 07:57:32;;;;;;;1.70;0.90;;;8.20;68.50;;;;;;5093310;28;20241;-51
2022/01/09 08:00:00;;;;;;;1.10;1.00;;;8.40;68.00;;;;;;5105471;28;20930;-53
2022/01/09 08:02:25;;;;;;;4.50;1.10;;;8.40;67.40;;;;;;5105987;28;20226;-48
2022/01/09 08:04:51;;;;;;;4.57;2.80;;;8.30;66.60;;;;;;5099877;28;20865;-51
2022/01/09 08:07:17;;;;;;;1.90;0.90;;;8.10;66.90;;;;;;5104032;28;20269;-53
2022/01/09 08:09:44;;;;;;;1.20;1.10;;;8.00;66.90;;;;;;5100277;28;20206;-53
2022/01/09 08:12:14;;;;;;;2.60;1.13;;;8.10;67.30;;;;;;5101439;28;20201;-55
2022/01/09 08:14:43;;;;;;;4.13;1.30;;;8.30;66.70;;;;;;5108001;28;20425;-54
2022/01/09 08:17:09;;;;;;;4.47;1.23;;;8.50;66.50;;;;;;5105181;28;20797;-53
2022/01/09 08:19:35;;;;;;;6.27;1.27;;;8.30;65.60;;;;;;5108087;28;20435;-53
2022/01/09 08:22:05;;;;;;;7.07;1.63;;;8.10;64.90;;;;;;5102473;28;20227;-52
2022/01/09 08:24:32;;;;;;;2.33;1.23;;;8.10;65.40;;;;;;5105196;28;20464;-54
2022/01/09 08:26:58;;;;;;;1.90;1.23;;;7.90;65.10;;;;;;5104274;28;20822;-49
2022/01/09 08:29:24;;;;;;;3.37;1.70;;;7.80;64.90;;;;;;5105139;28;20469;-49
2022/01/09 08:31:50;;;;;;;2.87;1.27;;;7.70;64.90;;;;;;5108016;28;20442;-50
2022/01/09 08:34:16;;;;;;;9.50;4.10;;;7.70;64.30;;;;;;5107049;28;20431;-50
2022/01/09 08:36:41;;;;;;;5.23;2.00;;;7.70;64.60;;;;;;5106363;28;20194;-49
2022/01/09 08:39:07;;;;;;;3.20;2.00;;;7.80;64.20;;;;;;5108549;28;20190;-49
2022/01/09 08:41:34;;;;;;;3.97;1.80;;;7.80;63.60;;;;;;5100707;28;20230;-48
2022/01/09 08:44:01;;;;;;;10.50;5.93;;;7.80;62.90;;;;;;5111671;28;20424;-49
2022/01/09 08:46:27;;;;;;;4.70;3.40;;;7.80;62.00;;;;;;5095400;28;20985;-49
2022/01/09 08:48:53;;;;;;;3.10;1.50;;;7.80;62.50;;;;;;5110305;28;20455;-50
2022/01/09 08:51:19;;;;;;;2.77;2.50;;;7.90;62.20;;;;;;5107889;28;20786;-49
2022/01/09 08:53:50;;;;;;;5.87;3.23;;;8.10;62.10;;;;;;5096576;28;20606;-48
2022/01/09 08:56:20;;;;;;;4.30;1.50;;;8.00;61.00;;;;;;5103921;28;20195;-49
2022/01/09 08:58:46;;;;;;;2.17;1.83;;;8.10;61.50;;;;;;5097395;28;20489;-50
2022/01/09 09:01:12;;;;;;;3.57;1.57;;;8.10;61.00;;;;;;5090437;28;20571;-49
2022/01/09 09:03:41;;;;;;;3.00;2.00;;;8.30;61.00;;;;;;5105586;28;20569;-49
2022/01/09 09:06:14;;;;;;;2.00;1.00;;;8.40;60.60;;;;;;5106553;28;20710;-49
2022/01/09 09:08:41;;;;;;;5.83;1.50;;;8.50;59.70;;;;;;5104421;28;20440;-49
2022/01/09 09:11:08;;;;;;;1.57;1.17;;;8.60;59.60;;;;;;5101533;28;20448;-49
2022/01/09 09:13:35;;;;;;;3.33;1.90;;;8.40;59.10;;;;;;5102536;28;20447;-48
2022/01/09 09:16:01;;;;;;;4.70;1.90;;;8.50;59.20;;;;;;5104640;28;20425;-52
2022/01/09 09:18:26;;;;;;;9.97;4.23;;;8.50;58.90;;;;;;5101970;28;20585;-49
2022/01/09 09:20:52;;;;;;;3.80;3.03;;;8.60;58.80;;;;;;5091733;28;20576;-49
2022/01/09 09:23:18;;;;;;;7.40;2.77;;;8.50;58.30;;;;;;5099664;28;20252;-49
2022/01/09 09:25:43;;;;;;;6.73;1.83;;;8.60;58.00;;;;;;5092020;28;20505;-49
2022/01/09 09:28:09;;;;;;;5.43;1.90;;;8.60;57.90;;;;;;5092713;28;20192;-48
2022/01/09 09:30:35;;;;;;;6.23;2.97;;;8.70;58.00;;;;;;5096236;28;20195;-49
2022/01/09 09:33:02;;;;;;;8.30;1.90;;;8.70;58.00;;;;;;5110461;28;20589;-48
2022/01/09 09:35:28;;;;;;;8.53;2.53;;;8.40;57.30;;;;;;5111158;28;20452;-49
2022/01/09 09:37:54;;;;;;;6.00;2.00;;;8.40;58.20;;;;;;5101103;28;20464;-52
2022/01/09 09:40:19;;;;;;;4.60;1.83;;;8.30;58.60;;;;;;5091413;28;20223;-49
2022/01/09 09:42:45;;;;;;;4.13;1.93;;;8.50;59.10;;;;;;5093477;28;20685;-49
2022/01/09 09:45:12;;;;;;;4.70;1.43;;;8.30;59.10;;;;;;5102521;28;20270;-49
2022/01/09 09:47:39;;;;;;;5.23;1.80;;;8.30;60.00;;;;;;5093204;28;20904;-50
2022/01/09 09:50:08;;;;;;;5.97;2.67;;;8.20;60.30;;;;;;5103137;28;20787;-49
2022/01/09 09:52:34;;;;;;;5.27;1.87;;;8.40;60.70;;;;;;5096267;28;20523;-48
2022/01/09 09:55:00;;;;;;;3.97;1.43;;;8.20;60.70;;;;;;5109410;28;21038;-48
2022/01/09 09:57:27;;;;;;;2.73;1.70;;;8.50;61.90;;;;;;5109660;28;20438;-49
2022/01/09 10:00:14;;;;;;;6.90;2.00;;;8.60;61.60;;;;;;5090687;28;20425;-48
2022/01/09 10:02:50;;;;;;;5.50;2.20;;;8.70;62.00;;;;;;5094664;28;20893;-49
2022/01/09 10:05:21;;;;;;;6.60;1.80;;;9.20;61.60;;;;;;5097525;28;20477;-51
2022/01/09 10:07:47;;;;;;;3.73;1.63;;;9.40;60.30;;;;;;5095864;28;20436;-49
2022/01/09 10:10:16;;;;;;;7.53;4.07;;;9.40;59.70;;;;;;5105140;28;20437;-51
2022/01/09 10:12:43;;;;;;;3.43;2.27;;;9.50;59.60;;;;;;5097713;28;20433;-51
2022/01/09 10:15:12;;;;;;;7.53;2.30;;;9.60;59.00;;;;;;5101573;28;20502;-50
2022/01/09 10:17:56;;;;;;;3.93;2.00;;;9.60;59.30;;;;;;5098679;28;20441;-54
2022/01/09 10:20:24;;;;;;;4.03;2.00;;;9.40;59.30;;;;;;5108538;28;20528;-55
2022/01/09 10:22:53;;;;;;;6.93;3.10;;;9.40;59.70;;;;;;5110877;28;20958;-53
2022/01/09 10:25:24;;;;;;;12.40;2.87;;;9.50;59.80;;;;;;5113292;28;20444;-54
2022/01/09 10:27:54;;;;;;;6.03;1.80;;;9.60;59.70;;;;;;5099579;28;20449;-53
2022/01/09 10:30:26;;;;;;;2.43;2.00;;;9.60;59.20;;;;;;5109198;28;20459;-53
2022/01/09 10:33:00;;;;;;;5.77;2.00;;;9.50;58.60;;;;;;5107896;28;20482;-50
2022/01/09 10:35:27;;;;;;;7.10;3.03;;;9.60;58.80;;;;;;5104559;28;20444;-52
2022/01/09 10:38:27;;;;;;;4.67;2.30;;;9.50;58.70;;;;;;5107818;28;21013;-53
2022/01/09 10:40:57;;;;;;;2.47;2.00;;;9.50;59.20;;;;;;5100313;28;20471;-50
2022/01/09 10:43:25;;;;;;;3.80;1.77;;;9.30;59.30;;;;;;5110022;28;20432;-49
2022/01/09 10:45:59;;;;;;;7.73;1.63;;;9.10;59.20;;;;;;5111386;28;20424;-53
2022/01/09 10:48:35;;;;;;;2.40;1.50;;;9.10;59.50;;;;;;5108152;28;20457;-50
2022/01/09 10:51:03;;;;;;;2.73;1.27;;;9.30;59.60;;;;;;5107685;28;20431;-53
2022/01/09 10:53:32;;;;;;;4.63;1.33;;;9.00;60.20;;;;;;5107684;28;20468;-51
2022/01/09 10:56:03;;;;;;;4.37;2.03;;;9.00;60.60;;;;;;5105840;28;20455;-54
2022/01/09 10:58:30;;;;;;;3.57;1.60;;;8.90;61.00;;;;;;5102456;28;20505;-54
2022/01/09 11:01:20;;;;;;;1.27;1.10;;;8.90;62.30;;;;;;5101725;28;20491;-53
2022/01/09 11:03:57;;;;;;;3.80;1.00;;;9.10;63.10;;;;;;5106307;28;20961;-52
2022/01/09 11:06:25;;;;;;;5.10;1.60;;;8.90;62.90;;;;;;5099473;28;20449;-53
2022/01/09 11:08:52;;;;;;;2.80;1.80;;;9.00;63.60;;;;;;5111473;28;20444;-53
2022/01/09 11:11:38;;;;;;;2.37;1.40;;;9.20;63.50;;;;;;5107981;28;20424;-55
2022/01/09 11:14:07;;;;;;;3.30;1.20;;;9.50;63.00;;;;;;5102540;28;20444;-50
2022/01/09 11:16:33;;;;;;;6.43;1.37;;;9.70;62.40;;;;;;5101117;28;20465;-54
2022/01/09 11:19:16;;;;;;;2.60;1.50;;;9.80;62.80;;;;;;5108406;28;20471;-50
2022/01/09 11:21:45;;;;;;;3.93;1.50;;;10.10;60.60;;;;;;5103611;28;20506;-50
2022/01/09 11:24:23;;;;;;;4.97;1.60;;;10.40;59.50;;;;;;5111568;28;20432;-50
2022/01/09 11:27:14;;;;;;;5.53;1.60;;;10.60;59.20;;;;;;5107049;28;20495;-50
2022/01/09 11:29:51;;;;;;;3.43;1.30;;;10.60;58.00;;;;;;5094307;28;20526;-50
2022/01/09 11:32:45;;;;;;;4.40;1.30;;;10.60;57.30;;;;;;5101122;28;20440;-50
2022/01/09 11:35:45;;;;;;;5.57;2.00;;;10.50;57.60;;;;;;5097029;28;20780;-51
2022/01/09 11:38:33;;;;;;;3.00;1.20;;;10.60;57.50;;;;;;5096325;28;20461;-51
2022/01/09 11:41:19;;;;;;;6.20;1.40;;;10.70;57.90;;;;;;5107266;28;20472;-52
2022/01/09 11:43:55;;;;;;;3.47;1.20;;;10.50;57.60;;;;;;5105571;28;20519;-55
2022/01/09 11:46:20;;;;;;;4.50;1.50;;;10.50;57.50;;;;;;5103137;28;20787;-51
2022/01/09 11:48:52;;;;;;;3.17;2.10;;;10.30;57.90;;;;;;5101611;28;20459;-53
2022/01/09 11:51:28;;;;;;;6.63;1.70;;;10.30;58.60;;;;;;5108175;28;20186;-50
2022/01/09 11:54:04;;;;;;;4.43;1.83;;;10.40;58.40;;;;;;5103375;28;20489;-50
2022/01/09 11:56:48;;;;;;;6.30;1.37;;;10.60;58.40;;;;;;5098213;28;20455;-51
2022/01/09 11:59:33;;;;;;;5.53;1.67;;;10.60;57.90;;;;;;5108755;28;20440;-50
2022/01/09 12:02:28;;;;;;;3.17;1.40;;;10.50;58.20;;;;;;5097456;28;21042;-50
2022/01/09 12:05:05;;;;;;;3.00;1.50;;;10.60;57.80;;;;;;5109873;28;21437;-50
2022/01/09 12:07:34;;;;;;;4.20;1.93;;;10.60;57.60;;;;;;5103710;28;20543;-50
2022/01/09 12:10:02;;;;;;;9.60;2.00;;;10.70;57.30;;;;;;5106192;28;20488;-51
2022/01/09 12:12:35;;;;;;;2.90;1.63;;;10.80;56.80;;;;;;5093117;28;21076;-50
2022/01/09 12:15:06;;;;;;;3.30;1.50;;;10.80;57.40;;;;;;5099289;28;20532;-50
2022/01/09 12:17:36;;;;;;;5.20;1.27;;;10.90;57.50;;;;;;5104165;28;20440;-50
2022/01/09 12:20:11;;;;;;;4.97;1.80;;;10.80;56.80;;;;;;5106038;28;21048;-52
2022/01/09 12:22:39;;;;;;;4.73;1.57;;;10.80;56.80;;;;;;5104689;28;21006;-51
2022/01/09 12:25:06;;;;;;;6.57;1.90;;;10.70;56.60;;;;;;5107045;28;20517;-54
2022/01/09 12:27:43;;;;;;;5.33;1.30;;;10.70;56.70;;;;;;5102615;27;20441;-51
2022/01/09 12:30:11;;;;;;;5.53;1.50;;;10.30;56.20;;;;;;5108606;28;20474;-51
2022/01/09 12:32:43;;;;;;;3.73;1.47;;;10.10;56.40;;;;;;5101527;28;20436;-52
2022/01/09 12:35:18;;;;;;;3.40;1.30;;;9.90;57.90;;;;;;5103956;28;20522;-50
2022/01/09 12:37:53;;;;;;;4.23;1.53;;;10.00;57.70;;;;;;5096179;28;20446;-51
2022/01/09 12:40:20;;;;;;;2.93;1.50;;;10.30;57.90;;;;;;5105122;28;20456;-51
2022/01/09 12:42:52;;;;;;;2.57;1.27;;;10.20;57.30;;;;;;5109469;28;20993;-51
2022/01/09 12:45:31;;;;;;;5.83;1.60;;;10.00;57.00;;;;;;5109044;28;21019;-53
2022/01/09 12:47:58;;;;;;;3.50;1.10;;;10.10;57.60;;;;;;5104672;28;20449;-50
2022/01/09 12:50:27;;;;;;;3.87;1.57;;;9.90;58.20;;;;;;5098106;28;20508;-55
2022/01/09 12:53:23;;;;;;;4.73;1.47;;;10.00;57.80;;;;;;5103452;28;20485;-54
2022/01/09 12:56:08;;;;;;;1.80;1.40;;;9.90;58.90;;;;;;5106373;28;20527;-55
2022/01/09 12:58:37;;;;;;;8.63;2.50;;;10.00;59.50;;;;;;5100371;28;20456;-53
2022/01/09 13:01:19;;;;;;;5.13;1.77;;;10.00;58.90;;;;;;5097051;28;21019;-54
2022/01/09 13:03:50;;;;;;;1.93;1.23;;;9.80;59.00;;;;;;5105292;28;20440;-54